Карточка аэропорта URSS

Внимание!
Информация на этой странице в стадии наполнения.
Если вы не увидели какой-то информации, или заметили неточность - пожалуйста сообщите нам!
Спасибо!
Команда RU-STAFF
Название аэропортаСочи
Название аэропорта (англ.)Sochi
Превышение89 ft. (27.1 m.)
Координаты43°26.634', 39°56.55'
Высота перехода13000 ft
Эшелон переходаQNH>=977hPa: FL150; QNH<977hPa: FL160
Коды ответчика1060-1077
Зона ОрВДРостов-на-Дону РПИ (URRV)
Данные METARURSS 212330Z 03002MPS 9999 OVC083 07/03 Q1022 R02/010070 R06/010070 NOSIG RMK R06/00000MPS QFE765
Проноз погоды (TAF)URSS 211956Z 2121/2221 04003G08MPS 9999 OVC100 TEMPO 2123/2206 SCT011 BECMG 2207/2209 28004G09MPS SCT040CB BKN100 TEMPO 2209/2216 -SHRA SCT007 BKN030CB OVC100 BECMG 2216/2218 05003G08MPS BKN009 BKN030CB OVC100 TEMPO 2218/2221 -SHRA BKN006 BKN030CB OVC100
NOTAMshow/hide NOTAM
AWOS   TABLE

Информация о ВПП

ВПП Длина ВПП (м.) Покрытие Курс ВПП Частота ILS
022500Цементобетон22110.5
062890Цементобетон58111.1
202500Цементобетон202 
242890Цементобетон238 

Диспетчерские позиции

Позывной Наименование органа УВД Частота
URSS_GNDСочи-Руление119.000
URSS_FM1119.000
URSS_R_APPСочи-Круг119.700
URSS_TWRСочи-Старт121.200
URSS_APPСочи-Подход124.600
URSS_DELСочи-Деливери132.700



Спутниковое изображение